Time;durP1;ratioP1;P1;durP2;ratioP2;P2;SDS_P1;SDS_P2;PMS_P1;PMS_P2;Temp;Humidity;BMP_temperature;BMP_pressure;BME280_temperature;BME280_humidity;BME280_pressure;Samples;Min_cycle;Max_cycle;Signal;HPM_P1;HPM_P2
2021/12/25 00:01:43;;;;;;;10.37;5.80;;;6.00;99.90;;;6.83;100.00;96948.91;5048572;28;20965;-81
2021/12/25 00:04:13;;;;;;;9.10;6.00;;;6.00;99.90;;;6.77;100.00;96952.28;5045142;28;20464;-81
2021/12/25 00:06:43;;;;;;;7.87;5.90;;;5.90;99.90;;;6.73;100.00;96949.25;5040330;28;20460;-81
2021/12/25 00:09:15;;;;;;;7.30;4.97;;;5.90;99.90;;;6.70;100.00;96948.84;5045026;28;20465;-81
2021/12/25 00:11:45;;;;;;;7.37;5.50;;;5.80;99.90;;;6.69;100.00;96952.41;5044864;28;20946;-81
2021/12/25 00:14:14;;;;;;;9.83;4.83;;;5.80;99.90;;;6.75;100.00;96962.03;5047615;28;20458;-81
2021/12/25 00:16:46;;;;;;;8.00;4.93;;;5.90;99.90;;;6.77;100.00;96960.84;5043399;28;20499;-81
2021/12/25 00:19:16;;;;;;;12.60;6.17;;;6.00;99.90;;;6.78;100.00;96964.25;5039094;28;20456;-81
2021/12/25 00:21:47;;;;;;;9.77;5.50;;;6.00;99.90;;;6.77;100.00;96960.06;5044879;28;20465;-81
2021/12/25 00:24:19;;;;;;;9.73;5.37;;;6.00;99.90;;;6.79;100.00;96952.88;5046598;28;20462;-81
2021/12/25 00:26:56;;;;;;;9.30;5.90;;;6.00;99.90;;;6.79;100.00;96964.06;5045236;28;21211;-81
2021/12/25 00:32:48;;;;;;;12.10;5.30;;;6.00;99.90;;;6.82;100.00;96957.69;5027943;28;20487;-81
2021/12/25 00:35:17;;;;;;;8.97;5.40;;;6.10;99.90;;;6.82;100.00;96957.69;5041761;28;20519;-81
2021/12/25 00:37:47;;;;;;;8.07;5.10;;;6.10;99.90;;;6.83;100.00;96949.72;5043236;28;20913;-81
2021/12/25 00:40:19;;;;;;;14.23;6.77;;;6.00;99.90;;;6.83;100.00;96946.31;5044719;28;20469;-81
2021/12/25 00:42:49;;;;;;;8.20;5.50;;;6.00;99.90;;;6.79;100.00;96945.09;5047509;28;20449;-81
2021/12/25 00:45:18;;;;;;;10.03;6.40;;;6.00;99.90;;;6.77;100.00;96954.88;5041030;28;20555;-81
2021/12/25 00:47:47;;;;;;;9.87;5.57;;;5.90;99.90;;;6.77;100.00;96953.06;5042558;28;20819;-81
2021/12/25 00:50:16;;;;;;;10.00;5.53;;;6.00;99.90;;;6.80;100.00;96951.91;5043136;28;20468;-81
2021/12/25 00:52:47;;;;;;;9.43;5.30;;;6.00;99.90;;;6.82;100.00;96949.91;5046858;28;20973;-81
2021/12/25 00:55:18;;;;;;;11.57;5.07;;;6.10;99.90;;;6.84;100.00;96950.50;5042872;28;20452;-81
2021/12/25 00:57:47;;;;;;;8.57;5.43;;;6.10;99.90;;;6.84;100.00;96953.91;5041337;28;20497;-81
2021/12/25 01:00:19;;;;;;;8.33;5.03;;;6.10;99.90;;;6.85;100.00;96945.13;5042827;28;20509;-81
2021/12/25 01:02:50;;;;;;;8.70;5.53;;;6.10;99.90;;;6.85;100.00;96946.91;5044995;28;20821;-82
2021/12/25 01:05:21;;;;;;;15.67;5.80;;;6.00;99.90;;;6.86;100.00;96948.53;5044110;28;20457;-81
2021/12/25 01:07:51;;;;;;;8.83;4.50;;;6.00;99.90;;;6.86;100.00;96944.13;5048380;28;20472;-81
2021/12/25 01:10:22;;;;;;;10.90;6.27;;;6.10;99.90;;;6.87;100.00;96950.13;5047387;28;20872;-81
2021/12/25 01:13:02;;;;;;;16.23;6.77;;;6.10;99.90;;;6.86;100.00;96943.34;5048799;28;20887;-81
2021/12/25 01:15:46;;;;;;;11.87;5.77;;;6.00;99.90;;;6.84;100.00;96935.72;5046875;28;20518;-81
2021/12/25 01:29:59;;;;;;;15.40;5.77;;;6.00;99.90;;;6.77;100.00;96931.50;4995762;28;20986;-83
2021/12/25 01:32:55;;;;;;;11.27;6.10;;;5.90;99.90;;;6.79;100.00;96932.09;4996338;28;20510;-83
2021/12/25 01:35:41;;;;;;;10.70;6.10;;;5.90;99.90;;;6.81;100.00;96930.91;5041817;28;20460;-83
2021/12/25 01:38:25;;;;;;;9.17;5.10;;;6.00;99.90;;;6.81;100.00;96924.91;5062632;28;20680;-83
2021/12/25 01:41:06;;;;;;;12.90;6.03;;;6.00;99.90;;;6.79;100.00;96924.31;5060484;28;20833;-83
2021/12/25 01:49:11;;;;;;;11.50;5.47;;;6.00;99.90;;;6.82;100.00;96913.53;5064142;28;20593;-83
2021/12/25 01:51:42;;;;;;;9.80;6.40;;;6.00;99.90;;;6.84;100.00;96914.94;5058569;28;20550;-82
2021/12/25 01:54:14;;;;;;;12.60;6.27;;;6.00;99.90;;;6.85;100.00;96916.53;5056428;28;20456;-83
2021/12/25 01:56:46;;;;;;;11.40;6.57;;;6.00;99.90;;;6.85;100.00;96910.53;5049964;28;20460;-83
2021/12/25 01:59:16;;;;;;;18.70;7.70;;;6.10;99.90;;;6.85;100.00;96905.34;5049595;28;20549;-83
2021/12/25 02:01:46;;;;;;;14.13;6.30;;;6.10;99.90;;;6.87;100.00;96905.97;5053909;28;20448;-84
2021/12/25 02:04:17;;;;;;;10.87;6.63;;;6.10;99.90;;;6.86;100.00;96906.97;5053906;28;20499;-83
2021/12/25 02:06:48;;;;;;;7.40;5.40;;;6.10;99.90;;;6.82;100.00;96905.72;5046941;28;20830;-83
2021/12/25 02:09:21;;;;;;;11.60;5.60;;;6.10;99.90;;;6.78;100.00;96899.31;5051226;28;20457;-83
2021/12/25 02:11:52;;;;;;;11.77;6.50;;;6.00;99.90;;;6.76;100.00;96901.31;5055378;28;20456;-83
2021/12/25 02:14:22;;;;;;;14.10;7.33;;;5.90;99.90;;;6.79;100.00;96895.72;5056698;28;20523;-83
2021/12/25 02:16:56;;;;;;;10.77;6.10;;;6.00;99.90;;;6.79;100.00;96901.72;5048344;28;20453;-83
2021/12/25 02:19:36;;;;;;;11.73;5.13;;;5.90;99.90;;;6.81;100.00;96893.72;5053958;28;20493;-83
2021/12/25 02:22:09;;;;;;;11.53;6.30;;;6.00;99.90;;;6.83;100.00;96896.94;5052944;28;20953;-83
2021/12/25 02:24:38;;;;;;;11.37;6.67;;;6.00;99.90;;;6.85;100.00;96892.34;5057255;28;20490;-83
2021/12/25 02:27:07;;;;;;;11.43;6.77;;;6.10;99.90;;;6.86;100.00;96891.38;5058571;28;20511;-83
2021/12/25 02:29:38;;;;;;;13.13;6.90;;;6.10;99.90;;;6.87;100.00;96892.97;5054683;28;20525;-83
2021/12/25 02:32:10;;;;;;;14.20;7.80;;;6.10;99.90;;;6.88;100.00;96889.38;5047321;28;20545;-83
2021/12/25 02:34:42;;;;;;;13.37;7.57;;;6.10;99.90;;;6.89;100.00;96890.97;5043351;28;20584;-83
2021/12/25 02:37:13;;;;;;;11.70;7.00;;;6.10;99.90;;;6.89;100.00;96890.97;5043390;28;20474;-83
2021/12/25 02:39:44;;;;;;;19.40;6.80;;;6.10;99.90;;;6.89;100.00;96883.19;5039719;28;20456;-84
2021/12/25 02:42:14;;;;;;;18.83;8.10;;;6.10;99.90;;;6.89;100.00;96885.78;5042278;28;20510;-83
2021/12/25 02:44:45;;;;;;;16.33;7.73;;;6.20;99.90;;;6.86;100.00;96880.97;5046442;28;20473;-84
2021/12/25 02:47:20;;;;;;;12.50;6.97;;;6.10;99.90;;;6.86;100.00;96878.38;5041248;28;20586;-83
2021/12/25 02:49:54;;;;;;;15.33;7.73;;;6.10;99.90;;;6.87;100.00;96880.00;5044149;28;20825;-83
2021/12/25 02:52:26;;;;;;;9.13;5.47;;;6.10;99.90;;;6.88;100.00;96873.78;5046835;28;20573;-83
2021/12/25 02:54:56;;;;;;;11.10;6.93;;;6.10;99.90;;;6.89;100.00;96868.41;5040687;28;20954;-84
2021/12/25 02:57:27;;;;;;;11.10;6.20;;;6.10;99.90;;;6.90;100.00;96875.22;5039049;28;20477;-83
2021/12/25 02:59:58;;;;;;;11.13;6.10;;;6.10;99.90;;;6.88;100.00;96878.97;5037978;28;20822;-83
2021/12/25 03:02:28;;;;;;;11.80;5.37;;;6.10;99.90;;;6.82;100.00;96875.38;5043986;28;20470;-83
2021/12/25 03:04:59;;;;;;;8.03;5.53;;;6.00;99.90;;;6.82;100.00;96864.97;5036194;28;20493;-83
2021/12/25 03:07:32;;;;;;;9.80;5.10;;;6.00;99.90;;;6.84;100.00;96862.16;5035786;28;20551;-83
2021/12/25 03:10:04;;;;;;;10.50;6.10;;;6.00;99.90;;;6.84;100.00;96872.56;5043658;28;20872;-83
2021/12/25 03:12:38;;;;;;;10.30;5.97;;;6.00;99.90;;;6.85;100.00;96867.19;5046211;28;20832;-83
2021/12/25 03:15:15;;;;;;;11.40;5.90;;;6.00;99.90;;;6.85;100.00;96868.97;5041267;28;20469;-83
2021/12/25 03:17:46;;;;;;;10.50;6.97;;;6.00;99.90;;;6.86;100.00;96870.59;5042337;28;20858;-83
2021/12/25 03:20:16;;;;;;;15.00;7.17;;;6.00;99.90;;;6.87;100.00;96870.38;5032384;28;20497;-83
2021/12/25 03:22:46;;;;;;;13.00;5.87;;;6.10;99.90;;;6.87;100.00;96865.19;5035059;28;20461;-83
2021/12/25 03:25:21;;;;;;;9.70;6.10;;;6.10;99.90;;;6.90;100.00;96871.81;5046865;28;20464;-83
2021/12/25 03:27:52;;;;;;;9.47;6.73;;;6.10;99.90;;;6.94;100.00;96871.22;5044830;28;20454;-83
2021/12/25 03:30:22;;;;;;;34.23;6.60;;;6.10;99.90;;;6.95;100.00;96869.41;5040862;28;20477;-83
2021/12/25 03:32:53;;;;;;;8.83;5.63;;;6.20;99.90;;;6.96;100.00;96871.03;5039137;28;20961;-84
2021/12/25 03:35:22;;;;;;;10.03;6.30;;;6.20;99.90;;;6.98;100.00;96880.22;5040164;28;20981;-83
2021/12/25 03:37:55;;;;;;;14.60;5.87;;;6.20;99.90;;;6.99;100.00;96873.25;5038897;28;21008;-84
2021/12/25 03:40:25;;;;;;;8.80;6.20;;;6.30;99.90;;;6.99;100.00;96870.63;5044133;28;20485;-83
2021/12/25 03:42:55;;;;;;;14.30;6.60;;;6.30;99.90;;;6.99;100.00;96874.03;5036905;28;20462;-83
2021/12/25 03:45:28;;;;;;;9.83;5.67;;;6.30;99.90;;;7.00;100.00;96872.25;5040222;28;20871;-83
2021/12/25 03:48:07;;;;;;;6.30;4.63;;;6.20;99.90;;;6.98;100.00;96869.84;5032810;28;20485;-83
2021/12/25 03:53:39;;;;;;;6.27;4.50;;;6.20;99.90;;;6.97;100.00;96867.44;5042076;28;20519;-83
2021/12/25 03:58:58;;;;;;;11.80;6.03;;;6.20;99.90;;;6.97;100.00;96863.06;5036711;28;20517;-83
2021/12/25 04:01:33;;;;;;;11.67;5.80;;;6.20;99.90;;;6.97;100.00;96862.25;5043013;28;20771;-83
2021/12/25 04:04:10;;;;;;;10.57;6.10;;;6.10;99.90;;;6.97;100.00;96862.25;5046935;28;20433;-83
2021/12/25 04:06:52;;;;;;;12.13;5.60;;;6.10;99.90;;;6.96;100.00;96860.63;5042205;28;20519;-84
2021/12/25 04:09:26;;;;;;;16.83;5.80;;;6.10;99.90;;;6.97;100.00;96854.44;5040213;28;20453;-83
2021/12/25 04:11:57;;;;;;;9.03;5.90;;;6.20;99.90;;;6.97;100.00;96857.03;5039950;28;20484;-83
2021/12/25 04:14:27;;;;;;;13.60;5.63;;;6.10;99.90;;;6.95;100.00;96851.22;5039431;28;20772;-83
2021/12/25 04:16:58;;;;;;;10.33;6.07;;;6.10;99.90;;;6.96;100.00;96845.84;5038900;28;20497;-83
2021/12/25 04:19:32;;;;;;;9.60;5.50;;;6.10;99.90;;;6.96;100.00;96852.84;5041093;28;21016;-83
2021/12/25 04:22:05;;;;;;;11.50;6.10;;;6.10;99.90;;;6.96;100.00;96845.84;5041296;28;20498;-84
2021/12/25 04:24:40;;;;;;;16.20;5.43;;;6.10;99.90;;;6.95;100.00;96841.63;5037891;28;21037;-83
2021/12/25 04:27:10;;;;;;;9.07;5.03;;;6.10;99.90;;;6.96;100.00;96845.84;5040373;28;20468;-83
2021/12/25 04:29:45;;;;;;;6.90;5.07;;;6.10;99.90;;;6.95;100.00;96841.63;5044559;28;20461;-83
2021/12/25 04:49:43;;;;;;;15.03;5.70;;;6.00;99.90;;;6.88;100.00;96837.41;5041502;28;20465;-83
2021/12/25 05:03:36;;;;;;;13.63;4.63;;;6.10;99.90;;;6.93;100.00;96835.03;5039255;28;20446;-83
2021/12/25 05:06:07;;;;;;;9.30;4.63;;;6.10;99.90;;;6.92;100.00;96838.63;5036633;28;20510;-83
2021/12/25 05:08:37;;;;;;;7.47;4.60;;;6.10;99.90;;;6.92;100.00;96831.63;5036152;28;20461;-83
2021/12/25 05:11:07;;;;;;;8.30;4.53;;;6.10;99.90;;;6.92;100.00;96836.84;5030516;28;20483;-82
2021/12/25 05:13:39;;;;;;;6.47;4.60;;;6.10;99.90;;;6.92;100.00;96826.44;5037698;28;20468;-84
2021/12/25 05:16:19;;;;;;;8.30;3.87;;;6.10;99.90;;;6.91;100.00;96824.03;5037640;28;20461;-83
2021/12/25 05:18:51;;;;;;;7.17;4.30;;;6.10;99.90;;;6.91;100.00;96826.63;5035365;28;20815;-83
2021/12/25 05:21:23;;;;;;;9.30;4.40;;;6.10;99.90;;;6.92;100.00;96828.22;5034674;28;20489;-83
2021/12/25 05:23:54;;;;;;;9.37;4.00;;;6.10;99.90;;;6.93;100.00;96825.44;5045071;28;20465;-83
2021/12/25 05:26:25;;;;;;;10.03;4.20;;;6.20;99.90;;;6.93;100.00;96819.44;5032064;28;20458;-83
2021/12/25 05:29:01;;;;;;;6.43;4.30;;;6.20;99.90;;;6.92;100.00;96823.84;5041012;28;21024;-83
2021/12/25 05:31:37;;;;;;;5.93;3.73;;;6.20;99.90;;;6.92;100.00;96828.22;5036685;28;20845;-83
2021/12/25 05:34:10;;;;;;;6.23;3.83;;;6.20;99.90;;;6.92;100.00;96828.22;5037823;28;20512;-83
2021/12/25 05:36:41;;;;;;;7.40;3.90;;;6.20;99.90;;;6.93;100.00;96830.66;5040231;28;20480;-83
2021/12/25 05:39:13;;;;;;;6.60;3.27;;;6.20;99.90;;;6.91;100.00;96826.63;5033207;28;20457;-83
2021/12/25 05:41:44;;;;;;;8.53;3.20;;;6.10;99.90;;;6.95;100.00;96830.44;5032625;28;20484;-83
2021/12/25 05:44:17;;;;;;;5.53;3.20;;;6.10;99.90;;;6.96;100.00;96829.44;5041450;28;20461;-83
2021/12/25 05:46:48;;;;;;;7.83;3.50;;;6.20;99.90;;;6.88;100.00;96838.22;5036481;28;20506;-85
2021/12/25 05:49:20;;;;;;;5.70;3.60;;;6.00;99.90;;;6.89;100.00;96836.41;5038432;28;20474;-83
2021/12/25 05:51:51;;;;;;;5.70;3.53;;;6.10;99.90;;;6.91;100.00;96827.44;5035059;28;20481;-83
2021/12/25 05:54:26;;;;;;;6.80;3.43;;;6.10;99.90;;;6.93;100.00;96837.63;5041050;28;20963;-84
2021/12/25 05:56:55;;;;;;;6.47;3.23;;;6.20;99.90;;;6.93;100.00;96835.03;5039682;28;20511;-83
2021/12/25 05:59:27;;;;;;;4.10;2.97;;;6.20;99.90;;;6.92;100.00;96836.03;5043059;28;20492;-83
2021/12/25 06:02:00;;;;;;;6.80;3.10;;;6.20;99.90;;;6.94;100.00;96842.63;5035286;28;20488;-84
2021/12/25 06:04:30;;;;;;;4.87;2.80;;;6.20;99.90;;;6.96;100.00;96834.66;5032677;28;20465;-83
2021/12/25 06:07:00;;;;;;;2.87;2.50;;;6.20;99.90;;;6.93;100.00;96835.03;5037526;28;20465;-83
2021/12/25 06:09:31;;;;;;;4.33;2.90;;;6.10;99.90;;;6.95;100.00;96840.84;5040840;28;20448;-84
2021/12/25 06:12:04;;;;;;;3.17;2.77;;;6.10;99.90;;;6.95;100.00;96830.44;5047031;28;20543;-82
2021/12/25 06:14:36;;;;;;;8.90;3.50;;;6.10;99.90;;;6.96;100.00;96834.66;5043125;28;21156;-83
2021/12/25 06:17:07;;;;;;;4.53;2.90;;;6.10;99.90;;;6.96;100.00;96835.44;5047044;28;20472;-83
2021/12/25 06:19:37;;;;;;;6.17;3.50;;;6.20;99.90;;;6.98;100.00;96843.03;5046010;28;20571;-82
2021/12/25 06:22:07;;;;;;;9.27;3.20;;;6.20;99.90;;;6.97;100.00;96850.06;5048086;28;20838;-82
2021/12/25 06:24:39;;;;;;;4.33;3.30;;;6.20;99.90;;;6.96;100.00;96856.25;5035421;28;20493;-82
2021/12/25 06:27:09;;;;;;;4.80;3.40;;;6.20;99.90;;;6.96;100.00;96851.03;5042943;28;20497;-82
2021/12/25 06:29:42;;;;;;;5.40;3.50;;;6.20;99.90;;;6.96;100.00;96850.25;5043805;28;20461;-82
2021/12/25 06:32:14;;;;;;;3.87;2.77;;;6.20;99.90;;;6.97;100.00;96850.06;5045532;28;20464;-82
2021/12/25 06:34:44;;;;;;;4.67;3.23;;;6.20;99.90;;;6.99;100.00;96853.25;5040305;28;21046;-82
2021/12/25 06:37:14;;;;;;;8.13;3.20;;;6.20;99.90;;;6.98;100.00;96856.03;5042761;28;20996;-82
2021/12/25 06:39:46;;;;;;;3.60;2.57;;;6.20;99.90;;;6.93;100.00;96861.03;5054101;28;20456;-82
2021/12/25 06:42:16;;;;;;;5.70;2.83;;;6.10;99.90;;;6.96;100.00;96865.84;5050450;28;20486;-82
2021/12/25 06:44:48;;;;;;;4.13;2.67;;;6.10;99.90;;;6.97;100.00;96867.44;5044706;28;20891;-82
2021/12/25 06:47:22;;;;;;;3.67;2.93;;;6.10;99.90;;;6.97;100.00;96868.25;5044090;28;20492;-82
2021/12/25 06:49:52;;;;;;;5.00;2.70;;;6.10;99.90;;;6.95;100.00;96866.81;5047918;28;20456;-82
2021/12/25 06:52:23;;;;;;;4.90;3.27;;;6.10;99.90;;;6.95;100.00;96875.41;5044095;28;20481;-82
2021/12/25 06:54:53;;;;;;;4.70;2.53;;;6.10;99.90;;;6.92;100.00;96868.00;5049666;28;20473;-82
2021/12/25 06:57:24;;;;;;;4.60;2.83;;;6.20;99.90;;;6.96;100.00;96879.63;5044147;28;20546;-82
2021/12/25 06:59:56;;;;;;;3.50;2.87;;;6.20;99.90;;;6.98;100.00;96874.22;5039690;28;20868;-82
2021/12/25 07:02:28;;;;;;;4.63;2.60;;;6.20;99.90;;;7.01;100.00;96879.06;5041100;28;20488;-82
2021/12/25 07:05:00;;;;;;;6.80;3.47;;;6.20;99.90;;;7.00;100.00;96888.66;5047148;28;20461;-82
2021/12/25 07:07:33;;;;;;;4.60;2.77;;;6.20;99.90;;;7.01;100.00;96881.66;5046113;28;20449;-82
2021/12/25 07:10:04;;;;;;;9.83;3.17;;;6.30;99.90;;;7.02;100.00;96885.84;5044615;28;20946;-82
2021/12/25 07:12:39;;;;;;;4.17;2.83;;;6.30;99.90;;;7.02;100.00;96891.84;5038326;28;20461;-82
2021/12/25 07:15:10;;;;;;;9.20;2.70;;;6.30;99.90;;;7.04;100.00;96889.88;5040566;28;20515;-82
2021/12/25 07:17:41;;;;;;;4.80;3.17;;;6.30;99.90;;;7.05;100.00;96890.66;5044796;28;20489;-85
2021/12/25 07:20:12;;;;;;;14.03;6.40;;;6.30;99.90;;;7.03;100.00;96896.06;5043996;28;20489;-82
2021/12/25 07:22:41;;;;;;;5.23;3.07;;;6.30;99.90;;;7.04;100.00;96896.88;5043146;28;20548;-82
2021/12/25 07:25:11;;;;;;;5.43;3.57;;;6.30;99.90;;;7.04;100.00;96895.06;5043582;28;20542;-82
2021/12/25 07:27:42;;;;;;;4.80;2.70;;;6.30;99.90;;;7.04;100.00;96899.47;5042557;28;20457;-82
2021/12/25 07:30:14;;;;;;;6.53;3.90;;;6.30;99.90;;;7.05;100.00;96901.84;5046374;28;20869;-82
2021/12/25 07:32:48;;;;;;;5.63;3.43;;;6.30;99.90;;;7.05;100.00;96901.84;5043972;28;20497;-82
2021/12/25 07:35:19;;;;;;;6.03;3.70;;;6.30;99.90;;;7.06;100.00;96900.06;5037688;28;20457;-82
2021/12/25 07:37:49;;;;;;;4.90;3.03;;;6.30;99.90;;;7.07;100.00;96893.88;5052117;28;20470;-82
2021/12/25 07:40:18;;;;;;;4.93;3.30;;;6.30;99.90;;;7.04;100.00;96902.06;5052376;28;20461;-82
2021/12/25 07:42:49;;;;;;;9.10;3.57;;;6.30;99.90;;;7.02;100.00;96904.84;5046478;28;20488;-82
2021/12/25 07:45:20;;;;;;;5.30;3.50;;;6.30;99.90;;;7.02;100.00;96907.44;5038606;28;20469;-82
2021/12/25 07:47:57;;;;;;;3.93;3.10;;;6.20;99.90;;;7.04;100.00;96907.25;5037370;28;20457;-82
2021/12/25 07:50:30;;;;;;;5.50;2.77;;;6.30;99.90;;;7.02;100.00;96911.81;5046991;28;20591;-82
2021/12/25 07:53:01;;;;;;;7.17;3.50;;;6.20;99.90;;;7.03;100.00;96913.44;5046665;28;20465;-82
2021/12/25 07:55:32;;;;;;;8.37;3.07;;;6.30;99.90;;;7.01;100.00;96910.25;5042530;28;20465;-81
2021/12/25 07:58:06;;;;;;;6.30;4.00;;;6.20;99.90;;;7.03;100.00;96908.25;5047840;28;20495;-82
2021/12/25 08:00:37;;;;;;;3.30;2.87;;;6.20;99.90;;;7.04;100.00;96913.25;5050882;28;20465;-81
2021/12/25 08:03:08;;;;;;;7.87;3.10;;;6.20;99.90;;;7.05;100.00;96916.63;5046967;28;20492;-81
2021/12/25 08:05:39;;;;;;;6.20;2.63;;;6.30;99.90;;;7.08;100.00;96921.44;5044943;28;20465;-82
2021/12/25 08:08:11;;;;;;;7.13;3.10;;;6.30;99.90;;;7.08;100.00;96914.47;5047562;28;20465;-82
2021/12/25 08:10:43;;;;;;;3.87;2.90;;;6.40;99.90;;;7.07;100.00;96915.47;5035807;28;20832;-82
2021/12/25 08:13:15;;;;;;;4.67;2.90;;;6.30;99.90;;;7.10;100.00;96924.66;5041714;28;20469;-82
2021/12/25 08:15:47;;;;;;;4.90;3.10;;;6.30;99.90;;;7.12;100.00;96922.66;5039852;28;20461;-81
2021/12/25 08:18:19;;;;;;;4.20;3.50;;;6.40;99.90;;;7.15;100.00;96926.72;5041233;28;20465;-82
2021/12/25 08:20:49;;;;;;;3.73;3.40;;;6.50;99.90;;;7.17;100.00;96927.31;5038797;28;21009;-82
2021/12/25 08:23:18;;;;;;;5.47;2.90;;;6.50;99.90;;;7.17;100.00;96925.50;5043608;28;21037;-84
2021/12/25 08:25:49;;;;;;;21.50;10.10;;;6.50;99.90;;;7.19;100.00;96923.50;5042877;28;20472;-81
2021/12/25 08:28:20;;;;;;;7.13;3.57;;;6.50;99.90;;;7.21;100.00;96921.53;5034346;28;20461;-82
2021/12/25 08:30:51;;;;;;;5.77;3.40;;;6.50;99.90;;;7.22;100.00;96924.94;5041780;28;20465;-82
2021/12/25 08:33:21;;;;;;;5.13;3.43;;;6.50;99.90;;;7.22;100.00;96920.50;5043514;28;20468;-83
2021/12/25 08:35:51;;;;;;;4.37;2.80;;;6.50;99.90;;;7.24;100.00;96939.34;5041370;28;20882;-83
2021/12/25 08:38:22;;;;;;;4.90;2.90;;;6.50;99.90;;;7.26;100.00;96929.53;5043162;28;20455;-83
2021/12/25 08:40:54;;;;;;;3.53;2.90;;;6.60;99.90;;;7.28;100.00;96937.16;5039556;28;20519;-85
2021/12/25 08:43:24;;;;;;;6.57;4.17;;;6.60;99.90;;;7.29;100.00;96933.56;5039569;28;20548;-81
2021/12/25 08:46:03;;;;;;;8.50;3.60;;;6.60;99.90;;;7.31;100.00;96937.56;5041874;28;20461;-82
2021/12/25 08:48:36;;;;;;;10.37;4.27;;;6.70;99.90;;;7.34;100.00;96942.38;5038082;28;20458;-82
2021/12/25 08:51:06;;;;;;;12.37;3.90;;;6.70;99.90;;;7.35;100.00;96944.00;5039377;28;20509;-82
2021/12/25 08:53:36;;;;;;;7.80;3.77;;;6.70;99.90;;;7.37;100.00;96944.59;5039728;28;20472;-82
2021/12/25 08:56:06;;;;;;;5.20;3.60;;;6.70;99.90;;;7.39;100.00;96947.00;5042794;28;20463;-82
2021/12/25 08:58:37;;;;;;;5.33;3.80;;;6.70;99.90;;;7.41;100.00;96947.59;5031213;28;20913;-80
2021/12/25 09:01:11;;;;;;;5.50;3.60;;;6.70;99.90;;;7.42;100.00;96950.03;5036434;28;20462;-80
2021/12/25 09:03:41;;;;;;;17.33;4.50;;;6.70;99.90;;;7.44;100.00;96950.63;5034185;28;20592;-81
2021/12/25 09:06:13;;;;;;;8.33;4.50;;;6.70;99.90;;;7.45;100.00;96954.84;5045821;28;20980;-80
2021/12/25 09:08:42;;;;;;;7.20;4.30;;;6.70;99.90;;;7.46;100.00;96966.81;5039212;28;20453;-81
2021/12/25 09:11:11;;;;;;;14.33;4.80;;;6.70;99.90;;;7.46;100.00;96956.41;5033845;28;20495;-81
2021/12/25 09:13:42;;;;;;;6.73;4.30;;;6.70;99.90;;;7.49;100.00;96966.47;5044218;28;20446;-81
2021/12/25 09:16:14;;;;;;;42.00;19.30;;;6.70;99.90;;;7.50;100.00;96962.03;5039875;28;20472;-80
2021/12/25 09:18:43;;;;;;;23.50;11.37;;;6.80;99.90;;;7.52;100.00;96966.06;5039457;28;20461;-81
2021/12/25 09:21:12;;;;;;;15.80;8.17;;;6.90;99.90;;;7.52;100.00;96960.88;5037554;28;20484;-80
2021/12/25 09:23:42;;;;;;;9.73;5.23;;;6.90;99.90;;;7.53;100.00;96959.84;5039766;28;20484;-80
2021/12/25 09:26:11;;;;;;;8.40;4.60;;;6.80;99.90;;;7.53;100.00;96965.06;5045910;28;21056;-80
2021/12/25 09:28:40;;;;;;;8.37;4.20;;;6.80;99.90;;;7.56;100.00;96963.88;5046119;28;20445;-80
2021/12/25 09:31:12;;;;;;;8.00;4.20;;;6.80;99.90;;;7.55;100.00;96964.88;5046851;28;20450;-80
2021/12/25 09:33:42;;;;;;;4.90;4.13;;;6.80;99.90;;;7.56;100.00;96972.50;5044973;28;20467;-80
2021/12/25 09:36:18;;;;;;;6.03;4.40;;;6.80;99.90;;;7.57;100.00;96968.88;5041186;28;20472;-80
2021/12/25 09:38:48;;;;;;;7.43;4.73;;;6.80;99.90;;;7.58;100.00;96967.06;5039540;28;20457;-80
2021/12/25 09:41:19;;;;;;;5.67;3.73;;;6.90;99.90;;;7.61;100.00;96964.09;5043264;28;20442;-80
2021/12/25 09:43:49;;;;;;;6.00;3.90;;;6.90;99.90;;;7.64;100.00;96973.28;5051541;28;20500;-80
2021/12/25 09:46:21;;;;;;;6.40;4.37;;;6.90;99.90;;;7.66;100.00;96971.31;5048732;28;20858;-80
2021/12/25 09:48:51;;;;;;;7.03;4.20;;;7.00;99.90;;;7.69;100.00;96970.91;5049314;28;20449;-80
2021/12/25 09:51:24;;;;;;;7.40;4.77;;;6.90;99.90;;;7.70;100.00;96967.31;5056262;28;20892;-81
2021/12/25 09:53:59;;;;;;;5.90;3.90;;;6.90;99.90;;;7.72;100.00;96971.34;5053909;28;20531;-80
2021/12/25 09:56:30;;;;;;;8.00;4.27;;;7.00;99.90;;;7.75;100.00;96973.53;5055862;28;20459;-80
2021/12/25 09:59:00;;;;;;;6.93;4.03;;;7.00;99.90;;;7.77;100.00;96979.38;5048066;28;20454;-81
2021/12/25 10:01:39;;;;;;;5.97;4.57;;;7.00;99.90;;;7.80;100.00;96978.16;5050304;28;20441;-80
2021/12/25 10:04:11;;;;;;;9.53;4.27;;;7.00;99.90;;;7.84;100.00;96976.78;5043717;28;20540;-80
2021/12/25 10:06:44;;;;;;;6.07;4.20;;;7.10;99.90;;;7.86;100.00;96982.56;5042391;28;20453;-80
2021/12/25 10:09:20;;;;;;;7.20;4.07;;;7.20;99.90;;;7.87;100.00;96982.41;5051112;28;20461;-80
2021/12/25 10:12:05;;;;;;;4.80;3.70;;;7.30;99.90;;;7.89;100.00;96983.00;5051045;28;20484;-80
2021/12/25 10:14:37;;;;;;;7.83;4.20;;;7.30;99.90;;;7.90;100.00;96984.59;5044099;28;20811;-80
2021/12/25 10:17:21;;;;;;;6.47;4.03;;;7.30;99.90;;;7.94;100.00;96985.00;5047479;28;20488;-80
2021/12/25 10:20:12;;;;;;;5.67;3.60;;;7.30;99.90;;;7.95;100.00;96986.59;5046367;28;20481;-80
2021/12/25 10:23:07;;;;;;;4.43;3.83;;;7.30;99.90;;;7.96;100.00;96985.59;5051723;28;20526;-80
2021/12/25 10:25:46;;;;;;;3.90;3.50;;;7.30;99.90;;;7.97;100.00;96989.81;5050110;28;20501;-80
2021/12/25 10:28:19;;;;;;;4.37;3.20;;;7.30;99.90;;;7.98;100.00;96979.19;5037998;28;20453;-80
2021/12/25 10:30:54;;;;;;;5.40;4.20;;;7.30;99.90;;;7.99;100.00;96978.22;5047802;28;20445;-80
2021/12/25 10:33:32;;;;;;;6.10;4.30;;;7.30;99.90;;;8.01;100.00;96975.41;5047563;28;20465;-80
2021/12/25 10:36:08;;;;;;;4.97;3.73;;;7.30;99.90;;;8.03;100.00;96973.41;5051382;28;20456;-80
2021/12/25 10:38:41;;;;;;;4.67;3.67;;;7.30;99.90;;;8.05;100.00;96966.22;5035171;28;20464;-80
2021/12/25 10:41:37;;;;;;;4.10;3.07;;;7.40;99.90;;;8.07;100.00;96964.22;5044901;28;20452;-80
2021/12/25 10:44:20;;;;;;;3.73;3.20;;;7.40;99.90;;;8.09;100.00;96968.22;5041485;28;20496;-80
2021/12/25 10:46:55;;;;;;;4.13;3.60;;;7.40;99.90;;;8.13;100.00;96973.81;5039389;28;20467;-80
2021/12/25 10:49:30;;;;;;;5.83;3.00;;;7.50;99.90;;;8.14;100.00;96967.63;5047234;28;20464;-80
2021/12/25 10:52:13;;;;;;;4.60;3.73;;;7.40;99.90;;;8.17;100.00;96975.03;5050555;28;20526;-80
2021/12/25 10:54:46;;;;;;;5.67;4.03;;;7.40;99.90;;;8.19;100.00;96969.66;5045779;28;20457;-80
2021/12/25 10:57:35;;;;;;;7.47;4.30;;;7.50;99.90;;;8.21;100.00;96971.03;5043659;28;20535;-80
2021/12/25 11:00:11;;;;;;;10.53;6.23;;;7.50;99.90;;;8.22;100.00;96964.84;5040605;28;20532;-80
2021/12/25 11:02:43;;;;;;;10.47;6.20;;;7.60;99.90;;;8.26;100.00;96973.06;5049677;28;20452;-80
2021/12/25 11:05:34;;;;;;;6.17;4.90;;;7.60;99.90;;;8.28;100.00;96976.25;5048805;28;20531;-80
2021/12/25 11:08:08;;;;;;;5.20;3.53;;;7.70;99.90;;;8.28;100.00;96977.09;5050778;28;20460;-80
2021/12/25 11:10:45;;;;;;;4.67;3.20;;;7.70;99.90;;;8.28;100.00;96982.31;5049710;28;20938;-80
2021/12/25 11:13:21;;;;;;;3.30;2.70;;;7.80;99.90;;;8.21;100.00;96978.84;5048996;28;20496;-80
2021/12/25 11:16:01;;;;;;;4.80;2.60;;;7.70;99.90;;;8.13;100.00;96979.03;5048716;28;20969;-79
2021/12/25 11:18:31;;;;;;;1.77;1.67;;;7.70;99.90;;;8.03;100.00;96981.22;5046968;28;20849;-80
2021/12/25 11:21:11;;;;;;;2.47;2.00;;;7.60;99.90;;;8.00;100.00;96984.22;5049690;28;20538;-81
2021/12/25 11:23:41;;;;;;;2.80;2.10;;;7.50;99.90;;;7.95;100.00;96989.19;5049827;28;20524;-80
2021/12/25 11:26:10;;;;;;;2.90;2.03;;;7.40;99.90;;;7.94;100.00;96990.22;5050183;28;20558;-79
2021/12/25 11:28:42;;;;;;;2.40;1.90;;;7.40;99.90;;;7.91;100.00;96990.63;5037723;28;20456;-80
2021/12/25 11:31:12;;;;;;;1.60;1.50;;;7.40;99.90;;;7.86;100.00;96983.38;5050263;28;20603;-80
2021/12/25 11:33:44;;;;;;;1.77;1.60;;;7.40;99.90;;;7.76;100.00;96987.34;5050102;28;20499;-79
2021/12/25 11:36:16;;;;;;;2.00;1.67;;;7.30;99.90;;;7.65;100.00;96980.91;5045709;28;20531;-79
2021/12/25 11:38:46;;;;;;;2.23;1.93;;;7.10;99.90;;;7.55;100.00;96983.88;5038672;28;20457;-79
2021/12/25 11:41:17;;;;;;;2.17;2.03;;;6.90;99.90;;;7.54;100.00;96984.88;5048669;28;20457;-79